Vosselaar, Belgium
Current Conditions -  °F | °C
As of 10:55 AM on Friday 31 Oct 2014 (Local Time) from EHGR Reporting Station
Broken Clouds Broken Clouds  
Wind Chill: 59°   Ceiling: 10000
Heat Index: 59°   Visibility: 6mi
Dew Point: 54°   Wind: 9mph
Humidity: 82%   Direction: 200°SSW
Pressure: 30.18"   Gusts: NA
Location:  51.31°N, 4.89°E
Report Text: EHGR 310955Z AUTO 20008KT 9999 SCT094 BKN100 15/12 Q1022 BLU 19008KT CAVOK
Loading
Personal Weather Stations






























Interactive Weather Map
Tropical Storm Tracking
New forecast layout! Learn more

10-Day Weather Forecast

Advertisements
Track Severe Weather on mobile